Alexandra — V7ZT8 — position and weather

sailwx.info

Track history (hours):
 
Tides and Currents Weather Stations Pressure Air Temp Water Temp Dewpoint Dewpoint Depression Visibility Wind Speed Wind Dir Waves Ship Positions

Alexandra

Last reported at 2018-Jan-25 22:11 UTC. Time now 2018-Feb-24 14:22 UTC.
Position N 24°10' E 118°27'.
Warning: this ship's position is 29 days out of date.

Length 270 m; draft 8.9 m.

Type: Cargo ship. MMSI: 538004912.

Date/timePositionNaut miles runAvg speedWind from/ knotsBaromVisibWave heightAir tempDewpointWater temp
2018-Jan-25 22:11N 24°10' E 118°27'1 7.0
2018-Jan-25 22:00N 24°10' E 118°26'4 7.4
2018-Jan-25 21:30N 24°11' E 118°22'4 8.2
2018-Jan-25 21:00N 24°11' E 118°17'5 9.4
2018-Jan-25 20:30N 24°14' E 118°13'5 9.2
2018-Jan-25 20:01N 24°18' E 118°11'510.0
2018-Jan-25 19:30N 24°22' E 118°08'4 8.8
2018-Jan-25 19:00N 24°25' E 118°04'3 5.2
2018-Jan-25 18:29N 24°26' E 118°02'0 0.1
2018-Jan-25 17:59N 24°26' E 118°02'0 0.1
2018-Jan-25 17:29N 24°26' E 118°02'0 0.1
2018-Jan-25 16:59N 24°26' E 118°02'0 0.1
2018-Jan-25 16:29N 24°26' E 118°02'0 0.0
2018-Jan-25 15:59N 24°26' E 118°02'0 0.0
2018-Jan-25 15:29N 24°27' E 118°02'0 0.0
2018-Jan-25 14:59N 24°26' E 118°02'0 0.1
2018-Jan-25 14:29N 24°26' E 118°02'0 0.0
2018-Jan-25 13:59N 24°26' E 118°02'0 0.1
2018-Jan-25 13:29N 24°26' E 118°02'0 0.0
2018-Jan-25 12:58N 24°26' E 118°02'0 0.1
2018-Jan-25 12:29N 24°26' E 118°02'0 0.0
2018-Jan-25 11:59N 24°26' E 118°02'0 0.0
2018-Jan-25 11:28N 24°26' E 118°02'0 0.1
2018-Jan-25 10:58N 24°26' E 118°02'0 0.0
2018-Jan-25 10:26N 24°26' E 118°02'0 0.0
2018-Jan-25 09:59N 24°26' E 118°02'0 0.0
2018-Jan-25 09:28N 24°26' E 118°02'0 0.0
2018-Jan-25 08:59N 24°26' E 118°02'0 0.0
2018-Jan-25 08:29N 24°26' E 118°02'0 0.0
2018-Jan-25 07:59N 24°26' E 118°02'0 0.1
2018-Jan-25 07:31N 24°26' E 118°02'2 3.7
2018-Jan-25 07:00N 24°26' E 118°04'611.8
2018-Jan-25 06:31N 24°22' E 118°08'611.9
2018-Jan-25 06:00N 24°16' E 118°11'510.2
2018-Jan-25 05:30N 24°13' E 118°15'815.6
2018-Jan-25 05:00N 24°06' E 118°19'815.5
2018-Jan-25 04:30N 23°58' E 118°16'  
2018-Jan-20 08:51N 01°14' E 104°01'615.4
2018-Jan-20 08:29N 01°13' E 103°55'714.2
2018-Jan-20 08:00N 01°12' E 103°49'4 8.2
2018-Jan-20 07:30N 01°15' E 103°46'1 2.1
2018-Jan-20 06:58N 01°16' E 103°46'0 0.0
2018-Jan-20 06:28N 01°16' E 103°46'0 0.0
2018-Jan-20 05:58N 01°16' E 103°46'0 0.0
2018-Jan-20 05:28N 01°16' E 103°46'0 0.0
2018-Jan-20 04:55N 01°16' E 103°46'0 0.0
2018-Jan-20 04:28N 01°16' E 103°46'0 0.0
2018-Jan-20 03:55N 01°16' E 103°46'0 0.0
2018-Jan-20 03:25N 01°16' E 103°46'0 0.0
2018-Jan-20 02:58N 01°16' E 103°46'0 0.0
2018-Jan-20 02:28N 01°16' E 103°46'0 0.0
2018-Jan-20 01:58N 01°16' E 103°46'0 0.0
2018-Jan-20 01:28N 01°16' E 103°46'0 0.0
2018-Jan-20 00:58N 01°16' E 103°46'0 0.0
2018-Jan-20 00:28N 01°16' E 103°46'0 0.0
2018-Jan-19 23:58N 01°16' E 103°46'0 0.0
2018-Jan-19 23:28N 01°16' E 103°46'0 0.0
2018-Jan-19 22:58N 01°16' E 103°46'0 0.0
2018-Jan-19 22:28N 01°16' E 103°46'0 0.0
2018-Jan-19 21:58N 01°16' E 103°46'0 0.0
2018-Jan-19 21:22N 01°16' E 103°46'0 0.0
2018-Jan-19 20:58N 01°16' E 103°46'0 0.0
2018-Jan-19 20:28N 01°16' E 103°46'0 0.0
2018-Jan-19 19:58N 01°16' E 103°46'0 0.0
2018-Jan-19 19:28N 01°16' E 103°46'0 0.0
2018-Jan-19 18:58N 01°16' E 103°46'0 0.0
2018-Jan-19 18:25N 01°16' E 103°46'0 0.0
2018-Jan-19 17:58N 01°16' E 103°46'0 0.0
2018-Jan-19 17:25N 01°16' E 103°46'0 0.0
2018-Jan-19 16:58N 01°16' E 103°46'0 0.0
2018-Jan-19 16:22N 01°16' E 103°46'0 0.0
2018-Jan-19 15:58N 01°16' E 103°46'0 0.0
2018-Jan-19 15:28N 01°16' E 103°46'0 0.0
2018-Jan-19 14:58N 01°16' E 103°46'0 0.0
2018-Jan-19 14:30N 01°16' E 103°46'0 0.7
2018-Jan-19 14:00N 01°16' E 103°46'3 5.8
2018-Jan-19 13:30N 01°14' E 103°43'612.5
2018-Jan-19 13:00N 01°12' E 103°37'3 6.2
2018-Jan-19 12:30N 01°13' E 103°34'4 6.4
2018-Jan-19 11:57N 01°14' E 103°31'1 2.2
2018-Jan-19 11:30N 01°14' E 103°30'1 1.2
2018-Jan-19 11:00N 01°14' E 103°31'1 1.5
2018-Jan-19 10:31N 01°13' E 103°31'1 1.2
2018-Jan-19 10:00N 01°14' E 103°31'0 0.1
2018-Jan-19 09:30N 01°14' E 103°31'0 0.2
2018-Jan-19 09:00N 01°14' E 103°31'0 0.3
2018-Jan-19 08:26N 01°14' E 103°31'0 0.7
2018-Jan-19 08:01N 01°14' E 103°32'1 2.9
2018-Jan-19 07:30N 01°15' E 103°32'5 9.3
2018-Jan-19 07:00N 01°20' E 103°33'1 1.1
2018-Jan-19 06:29N 01°20' E 103°33'0 0.0
2018-Jan-19 05:56N 01°20' E 103°33'0 0.0
2018-Jan-19 05:29N 01°20' E 103°33'0 0.0
2018-Jan-19 04:59N 01°20' E 103°33'0 0.0
2018-Jan-19 04:29N 01°20' E 103°33'0 0.0
2018-Jan-19 03:59N 01°20' E 103°33'0 0.0
2018-Jan-19 03:26N 01°20' E 103°33'0 0.0
2018-Jan-19 02:56N 01°20' E 103°33'0 0.0
2018-Jan-19 02:23N 01°20' E 103°33'0 0.0
2018-Jan-19 01:56N 01°20' E 103°33'0 0.0
2018-Jan-19 01:29N 01°20' E 103°33'0 0.0
2018-Jan-19 00:53N 01°20' E 103°33'0 0.0
2018-Jan-19 00:29N 01°20' E 103°33'0 0.0
2018-Jan-18 23:32N 01°20' E 103°33'0 0.2
2018-Jan-18 23:31N 01°20' E 103°33'1 1.9
2018-Jan-18 23:00N 01°19' E 103°33'4 7.3
2018-Jan-18 22:30N 01°16' E 103°33'3 5.9
2018-Jan-18 22:01N 01°13' E 103°32'3 6.7
2018-Jan-18 21:30N 01°12' E 103°35'612.2
2018-Jan-18 21:01N 01°10' E 103°41'611.0
2018-Jan-18 20:30N 01°10' E 103°47'713.8
2018-Jan-18 20:00N 01°13' E 103°53'713.5
2018-Jan-18 19:31N 01°15' E 103°59'713.2
2018-Jan-18 19:00N 01°16' E 104°06'813.0
2018-Jan-18 18:21N 01°17' E 104°14'411.5
2018-Jan-18 17:59N 01°18' E 104°18'613.3
2018-Jan-18 17:29N 01°22' E 104°24'  
Track history (hours):
 
Tides and Currents Weather Stations Pressure Air Temp Water Temp Dewpoint Dewpoint Depression Visibility Wind Speed Wind Dir Waves Ship Positions

Alexandra

Last reported at 2018-Jan-25 22:11 UTC. Time now 2018-Feb-24 14:22 UTC.
Position N 24°10' E 118°27'.
Warning: this ship's position is 29 days out of date.

Length 270 m; draft 8.9 m.

Type: Cargo ship. MMSI: 538004912.

Date/timePositionNaut miles runAvg speedWind from/ knotsBaromVisibWave heightAir tempDewpointWater temp
2018-Jan-25 22:11N 24°10' E 118°27'1 7.0
2018-Jan-25 22:00N 24°10' E 118°26'4 7.4
2018-Jan-25 21:30N 24°11' E 118°22'4 8.2
2018-Jan-25 21:00N 24°11' E 118°17'5 9.4
2018-Jan-25 20:30N 24°14' E 118°13'5 9.2
2018-Jan-25 20:01N 24°18' E 118°11'510.0
2018-Jan-25 19:30N 24°22' E 118°08'4 8.8
2018-Jan-25 19:00N 24°25' E 118°04'3 5.2
2018-Jan-25 18:29N 24°26' E 118°02'0 0.1
2018-Jan-25 17:59N 24°26' E 118°02'0 0.1
2018-Jan-25 17:29N 24°26' E 118°02'0 0.1
2018-Jan-25 16:59N 24°26' E 118°02'0 0.1
2018-Jan-25 16:29N 24°26' E 118°02'0 0.0
2018-Jan-25 15:59N 24°26' E 118°02'0 0.0
2018-Jan-25 15:29N 24°27' E 118°02'0 0.0
2018-Jan-25 14:59N 24°26' E 118°02'0 0.1
2018-Jan-25 14:29N 24°26' E 118°02'0 0.0
2018-Jan-25 13:59N 24°26' E 118°02'0 0.1
2018-Jan-25 13:29N 24°26' E 118°02'0 0.0
2018-Jan-25 12:58N 24°26' E 118°02'0 0.1
2018-Jan-25 12:29N 24°26' E 118°02'0 0.0
2018-Jan-25 11:59N 24°26' E 118°02'0 0.0
2018-Jan-25 11:28N 24°26' E 118°02'0 0.1
2018-Jan-25 10:58N 24°26' E 118°02'0 0.0
2018-Jan-25 10:26N 24°26' E 118°02'0 0.0
2018-Jan-25 09:59N 24°26' E 118°02'0 0.0
2018-Jan-25 09:28N 24°26' E 118°02'0 0.0
2018-Jan-25 08:59N 24°26' E 118°02'0 0.0
2018-Jan-25 08:29N 24°26' E 118°02'0 0.0
2018-Jan-25 07:59N 24°26' E 118°02'0 0.1
2018-Jan-25 07:31N 24°26' E 118°02'2 3.7
2018-Jan-25 07:00N 24°26' E 118°04'611.8
2018-Jan-25 06:31N 24°22' E 118°08'611.9
2018-Jan-25 06:00N 24°16' E 118°11'510.2
2018-Jan-25 05:30N 24°13' E 118°15'815.6
2018-Jan-25 05:00N 24°06' E 118°19'815.5
2018-Jan-25 04:30N 23°58' E 118°16'  
2018-Jan-20 08:51N 01°14' E 104°01'615.4
2018-Jan-20 08:29N 01°13' E 103°55'714.2
2018-Jan-20 08:00N 01°12' E 103°49'4 8.2
2018-Jan-20 07:30N 01°15' E 103°46'1 2.1
2018-Jan-20 06:58N 01°16' E 103°46'0 0.0
2018-Jan-20 06:28N 01°16' E 103°46'0 0.0
2018-Jan-20 05:58N 01°16' E 103°46'0 0.0
2018-Jan-20 05:28N 01°16' E 103°46'0 0.0
2018-Jan-20 04:55N 01°16' E 103°46'0 0.0
2018-Jan-20 04:28N 01°16' E 103°46'0 0.0
2018-Jan-20 03:55N 01°16' E 103°46'0 0.0
2018-Jan-20 03:25N 01°16' E 103°46'0 0.0
2018-Jan-20 02:58N 01°16' E 103°46'0 0.0
2018-Jan-20 02:28N 01°16' E 103°46'0 0.0
2018-Jan-20 01:58N 01°16' E 103°46'0 0.0
2018-Jan-20 01:28N 01°16' E 103°46'0 0.0
2018-Jan-20 00:58N 01°16' E 103°46'0 0.0
2018-Jan-20 00:28N 01°16' E 103°46'0 0.0
2018-Jan-19 23:58N 01°16' E 103°46'0 0.0
2018-Jan-19 23:28N 01°16' E 103°46'0 0.0
2018-Jan-19 22:58N 01°16' E 103°46'0 0.0
2018-Jan-19 22:28N 01°16' E 103°46'0 0.0
2018-Jan-19 21:58N 01°16' E 103°46'0 0.0
2018-Jan-19 21:22N 01°16' E 103°46'0 0.0
2018-Jan-19 20:58N 01°16' E 103°46'0 0.0
2018-Jan-19 20:28N 01°16' E 103°46'0 0.0
2018-Jan-19 19:58N 01°16' E 103°46'0 0.0
2018-Jan-19 19:28N 01°16' E 103°46'0 0.0
2018-Jan-19 18:58N 01°16' E 103°46'0 0.0
2018-Jan-19 18:25N 01°16' E 103°46'0 0.0
2018-Jan-19 17:58N 01°16' E 103°46'0 0.0
2018-Jan-19 17:25N 01°16' E 103°46'0 0.0
2018-Jan-19 16:58N 01°16' E 103°46'0 0.0
2018-Jan-19 16:22N 01°16' E 103°46'0 0.0
2018-Jan-19 15:58N 01°16' E 103°46'0 0.0
2018-Jan-19 15:28N 01°16' E 103°46'0 0.0
2018-Jan-19 14:58N 01°16' E 103°46'0 0.0
2018-Jan-19 14:30N 01°16' E 103°46'0 0.7
2018-Jan-19 14:00N 01°16' E 103°46'3 5.8
2018-Jan-19 13:30N 01°14' E 103°43'612.5
2018-Jan-19 13:00N 01°12' E 103°37'3 6.2
2018-Jan-19 12:30N 01°13' E 103°34'4 6.4
2018-Jan-19 11:57N 01°14' E 103°31'1 2.2
2018-Jan-19 11:30N 01°14' E 103°30'1 1.2
2018-Jan-19 11:00N 01°14' E 103°31'1 1.5
2018-Jan-19 10:31N 01°13' E 103°31'1 1.2
2018-Jan-19 10:00N 01°14' E 103°31'0 0.1
2018-Jan-19 09:30N 01°14' E 103°31'0 0.2
2018-Jan-19 09:00N 01°14' E 103°31'0 0.3
2018-Jan-19 08:26N 01°14' E 103°31'0 0.7
2018-Jan-19 08:01N 01°14' E 103°32'1 2.9
2018-Jan-19 07:30N 01°15' E 103°32'5 9.3
2018-Jan-19 07:00N 01°20' E 103°33'1 1.1
2018-Jan-19 06:29N 01°20' E 103°33'0 0.0
2018-Jan-19 05:56N 01°20' E 103°33'0 0.0
2018-Jan-19 05:29N 01°20' E 103°33'0 0.0
2018-Jan-19 04:59N 01°20' E 103°33'0 0.0
2018-Jan-19 04:29N 01°20' E 103°33'0 0.0
2018-Jan-19 03:59N 01°20' E 103°33'0 0.0
2018-Jan-19 03:26N 01°20' E 103°33'0 0.0
2018-Jan-19 02:56N 01°20' E 103°33'0 0.0
2018-Jan-19 02:23N 01°20' E 103°33'0 0.0
2018-Jan-19 01:56N 01°20' E 103°33'0 0.0
2018-Jan-19 01:29N 01°20' E 103°33'0 0.0
2018-Jan-19 00:53N 01°20' E 103°33'0 0.0
2018-Jan-19 00:29N 01°20' E 103°33'0 0.0
2018-Jan-18 23:32N 01°20' E 103°33'0 0.2
2018-Jan-18 23:31N 01°20' E 103°33'1 1.9
2018-Jan-18 23:00N 01°19' E 103°33'4 7.3
2018-Jan-18 22:30N 01°16' E 103°33'3 5.9
2018-Jan-18 22:01N 01°13' E 103°32'3 6.7
2018-Jan-18 21:30N 01°12' E 103°35'612.2
2018-Jan-18 21:01N 01°10' E 103°41'611.0
2018-Jan-18 20:30N 01°10' E 103°47'713.8
2018-Jan-18 20:00N 01°13' E 103°53'713.5
2018-Jan-18 19:31N 01°15' E 103°59'713.2
2018-Jan-18 19:00N 01°16' E 104°06'813.0
2018-Jan-18 18:21N 01°17' E 104°14'411.5
2018-Jan-18 17:59N 01°18' E 104°18'613.3
2018-Jan-18 17:29N 01°22' E 104°24'  

Dump ship's entire track history